Sichomovi, Arizona
Current Conditions -  °F | °C
As of 12:56 AM on Thursday 23 Oct 2014 (Local Time) from KINW Reporting Station
Clear Clear  
Wind Chill: 47°   Ceiling: Unl
Heat Index: 47°   Visibility: 10mi
Dew Point: 38°   Wind: 3mph
Humidity: 71%   Direction: 100°E
Pressure: 30.2"   Gusts: NA
Location:  35.9347°N, 110.453°W
Report Text: KINW 230756Z AUTO 10003KT 10SM CLR 08/03 A3020 RMK AO2 SLP180 T00830033
Loading
Personal Weather Stations






























Interactive Weather Map
Tropical Storm Tracking
New forecast layout! Learn more

10-Day Weather Forecast

Advertisements
Track Severe Weather on mobile